Time;durP1;ratioP1;P1;durP2;ratioP2;P2;SDS_P1;SDS_P2;PMS_P1;PMS_P2;Temp;Humidity;BMP_temperature;BMP_pressure;BME280_temperature;BME280_humidity;BME280_pressure;Samples;Min_cycle;Max_cycle;Signal;HPM_P1;HPM_P2
2021/01/24 00:01:55;;;;;;;7.10;5.32;;;20.70;38.90;;;;;;4808773;29;20612;-77
2021/01/24 00:04:21;;;;;;;8.27;4.80;;;20.70;39.80;;;;;;4825501;29;20396;-78
2021/01/24 00:06:46;;;;;;;6.55;5.00;;;20.70;38.90;;;;;;4808691;29;20042;-79
2021/01/24 00:09:12;;;;;;;5.65;4.28;;;20.70;39.60;;;;;;4808868;29;20099;-78
2021/01/24 00:11:38;;;;;;;8.88;5.35;;;20.60;39.40;;;;;;4835867;29;20453;-77
2021/01/24 00:14:06;;;;;;;8.40;4.80;;;20.70;39.60;;;;;;4809170;29;20034;-78
2021/01/24 00:16:32;;;;;;;6.60;4.28;;;20.60;39.40;;;;;;4794221;29;20530;-77
2021/01/24 00:18:57;;;;;;;8.90;5.13;;;20.60;39.40;;;;;;4825046;29;20133;-78
2021/01/24 00:21:23;;;;;;;5.85;4.10;;;20.60;39.40;;;;;;4793972;29;20395;-77
2021/01/24 00:23:48;;;;;;;3.72;2.95;;;20.50;40.00;;;;;;4825079;29;20551;-76
2021/01/24 00:26:14;;;;;;;7.07;4.80;;;20.50;39.60;;;;;;4824658;29;20046;-76
2021/01/24 00:28:39;;;;;;;4.43;3.80;;;20.50;39.50;;;;;;4825529;29;20042;-76
2021/01/24 00:31:05;;;;;;;5.80;4.35;;;20.50;39.50;;;;;;4808091;29;20050;-79
2021/01/24 00:33:31;;;;;;;3.22;2.80;;;20.50;39.60;;;;;;4824692;29;20061;-78
2021/01/24 00:35:56;;;;;;;5.35;2.75;;;20.50;40.50;;;;;;4807513;29;20180;-78
2021/01/24 00:38:22;;;;;;;4.03;2.78;;;20.40;39.60;;;;;;4823270;29;20050;-77
2021/01/24 00:40:47;;;;;;;6.28;3.70;;;20.40;39.60;;;;;;4824746;29;20034;-78
2021/01/24 00:43:13;;;;;;;4.45;3.50;;;20.40;39.80;;;;;;4821987;29;20046;-78
2021/01/24 00:45:39;;;;;;;3.90;2.22;;;20.40;39.80;;;;;;4793376;29;20053;-78
2021/01/24 00:48:04;;;;;;;3.55;2.53;;;20.40;39.70;;;;;;4824572;29;20026;-79
2021/01/24 00:50:30;;;;;;;4.18;2.95;;;20.40;39.80;;;;;;4808763;29;20042;-79
2021/01/24 00:52:56;;;;;;;3.92;2.60;;;20.30;40.00;;;;;;4808364;29;20031;-78
2021/01/24 00:55:21;;;;;;;3.67;2.60;;;20.30;40.00;;;;;;4791169;29;20530;-78
2021/01/24 00:57:47;;;;;;;2.17;1.98;;;20.30;39.80;;;;;;4807701;29;20111;-78
2021/01/24 01:00:13;;;;;;;2.78;2.08;;;20.30;39.70;;;;;;4824338;29;20031;-78
2021/01/24 01:02:38;;;;;;;2.10;1.90;;;20.30;39.60;;;;;;4824188;29;20038;-78
2021/01/24 01:05:05;;;;;;;1.88;1.77;;;20.30;39.50;;;;;;4806377;29;20038;-79
2021/01/24 01:07:31;;;;;;;1.20;1.10;;;20.30;39.70;;;;;;4807432;29;20103;-79
2021/01/24 01:09:57;;;;;;;1.65;1.55;;;20.30;39.50;;;;;;4824817;29;20022;-79
2021/01/24 01:12:22;;;;;;;1.75;1.20;;;20.30;39.50;;;;;;4823845;29;20045;-78
2021/01/24 01:14:48;;;;;;;2.40;1.95;;;20.30;39.50;;;;;;4814731;29;20035;-79
2021/01/24 01:17:14;;;;;;;1.63;1.52;;;20.30;39.60;;;;;;4800916;29;20105;-79
2021/01/24 01:19:39;;;;;;;2.63;2.00;;;20.30;39.50;;;;;;4777982;29;20073;-79
2021/01/24 01:22:05;;;;;;;2.13;1.30;;;20.30;39.50;;;;;;4807557;29;20030;-79
2021/01/24 01:24:30;;;;;;;2.75;2.10;;;20.30;40.10;;;;;;4807859;29;20053;-77
2021/01/24 01:26:56;;;;;;;1.52;0.85;;;20.20;39.60;;;;;;4808152;29;20043;-79
2021/01/24 01:29:22;;;;;;;2.88;2.58;;;20.20;39.40;;;;;;4807632;29;20061;-78
2021/01/24 01:31:59;;;;;;;2.28;1.45;;;20.20;39.60;;;;;;4823632;29;20069;-79
2021/01/24 01:34:25;;;;;;;3.50;2.70;;;20.20;39.30;;;;;;4798605;29;20042;-79
2021/01/24 01:36:51;;;;;;;3.90;2.25;;;20.20;39.60;;;;;;4824166;29;20110;-79
2021/01/24 01:39:16;;;;;;;2.17;1.95;;;20.20;39.40;;;;;;4823933;29;20026;-79
2021/01/24 01:41:42;;;;;;;4.10;2.97;;;20.20;40.00;;;;;;4807362;29;20049;-79
2021/01/24 01:44:08;;;;;;;4.38;3.13;;;20.20;39.50;;;;;;4824271;29;20027;-79
2021/01/24 01:46:33;;;;;;;3.47;2.53;;;20.20;39.50;;;;;;4792282;29;20393;-79
2021/01/24 01:48:59;;;;;;;3.60;3.28;;;20.20;39.40;;;;;;4822966;29;20105;-79
2021/01/24 01:51:25;;;;;;;3.00;2.47;;;20.10;39.50;;;;;;4807487;29;20522;-77
2021/01/24 01:53:50;;;;;;;2.10;1.90;;;20.10;39.30;;;;;;4807175;29;20092;-69
2021/01/24 01:56:16;;;;;;;3.08;2.78;;;20.10;39.60;;;;;;4807321;29;20042;-77
2021/01/24 01:58:42;;;;;;;4.55;2.88;;;20.10;39.50;;;;;;4822595;29;20515;-77
2021/01/24 02:01:25;;;;;;;2.40;1.70;;;20.10;39.60;;;;;;4807067;29;20050;-78
2021/01/24 02:04:10;;;;;;;2.58;2.35;;;20.00;39.90;;;;;;4805458;29;20116;-78
2021/01/24 02:06:46;;;;;;;2.85;2.47;;;20.00;39.80;;;;;;4806894;29;20046;-79
2021/01/24 02:09:19;;;;;;;2.95;1.73;;;20.00;39.80;;;;;;4805646;29;20031;-77
2021/01/24 02:11:49;;;;;;;4.07;2.92;;;20.00;39.90;;;;;;4774503;29;20484;-77
2021/01/24 02:14:22;;;;;;;3.28;2.90;;;20.00;39.60;;;;;;4793734;29;20074;-78
2021/01/24 02:16:48;;;;;;;3.42;2.88;;;20.00;40.00;;;;;;4790085;29;20042;-78
2021/01/24 02:19:48;;;;;;;4.93;2.95;;;20.00;40.10;;;;;;4802540;29;20050;-69
2021/01/24 02:22:14;;;;;;;4.78;3.30;;;20.00;39.90;;;;;;4823032;29;20114;-69
2021/01/24 02:24:41;;;;;;;2.53;2.30;;;20.00;40.10;;;;;;4792287;29;20109;-69
2021/01/24 02:27:14;;;;;;;3.17;1.80;;;19.90;39.90;;;;;;4791589;29;20069;-69
2021/01/24 02:30:10;;;;;;;3.38;2.72;;;19.90;40.00;;;;;;4777056;29;20415;-69
2021/01/24 02:32:35;;;;;;;2.80;2.60;;;19.90;40.00;;;;;;4809386;29;20098;-69
2021/01/24 02:35:01;;;;;;;3.50;2.80;;;19.90;40.00;;;;;;4791929;29;20506;-69
2021/01/24 02:37:27;;;;;;;3.53;2.70;;;19.90;39.90;;;;;;4791787;29;20031;-69
2021/01/24 02:39:52;;;;;;;2.22;2.00;;;19.90;39.80;;;;;;4807165;29;20060;-69
2021/01/24 02:42:18;;;;;;;3.05;2.22;;;19.90;40.00;;;;;;4791742;29;20119;-69
2021/01/24 02:44:43;;;;;;;3.65;2.05;;;19.90;40.00;;;;;;4792007;29;20427;-69
2021/01/24 02:47:09;;;;;;;2.60;1.55;;;19.90;39.80;;;;;;4777736;29;20055;-69
2021/01/24 02:49:35;;;;;;;3.45;2.55;;;19.90;39.70;;;;;;4804332;29;20038;-69
2021/01/24 02:52:01;;;;;;;1.50;1.33;;;19.90;39.70;;;;;;4823227;29;20027;-69
2021/01/24 02:54:27;;;;;;;2.85;2.65;;;19.90;39.80;;;;;;4811020;29;20050;-69
2021/01/24 02:56:52;;;;;;;1.90;1.58;;;19.90;39.70;;;;;;4764866;29;20043;-69
2021/01/24 02:59:19;;;;;;;2.55;2.35;;;19.90;39.80;;;;;;4804143;29;20096;-69
2021/01/24 03:01:44;;;;;;;3.10;2.78;;;19.90;39.50;;;;;;4801606;29;20444;-70
2021/01/24 03:04:10;;;;;;;2.80;2.60;;;19.90;39.70;;;;;;4805895;29;20038;-70
2021/01/24 03:06:36;;;;;;;1.80;1.65;;;19.90;39.50;;;;;;4825347;29;20050;-71
2021/01/24 03:09:01;;;;;;;1.98;1.77;;;19.90;39.80;;;;;;4814286;29;20497;-70
2021/01/24 03:11:27;;;;;;;2.65;2.45;;;19.90;39.90;;;;;;4841631;29;20026;-69
2021/01/24 03:14:04;;;;;;;2.70;2.50;;;19.90;39.90;;;;;;4815253;29;20082;-70
2021/01/24 03:16:31;;;;;;;3.45;3.15;;;19.90;39.70;;;;;;4806048;29;20054;-69
2021/01/24 03:18:57;;;;;;;5.03;2.80;;;19.80;39.70;;;;;;4804758;29;20089;-69
2021/01/24 03:21:22;;;;;;;3.33;3.03;;;19.80;39.90;;;;;;4806571;29;20058;-69
2021/01/24 03:23:48;;;;;;;2.53;1.90;;;19.80;39.50;;;;;;4811562;29;20034;-69
2021/01/24 03:26:13;;;;;;;5.32;3.13;;;19.80;39.80;;;;;;4822154;29;20065;-69
2021/01/24 03:28:39;;;;;;;3.35;3.05;;;19.80;39.90;;;;;;4816478;29;20033;-69
2021/01/24 03:31:06;;;;;;;3.20;1.92;;;19.80;39.80;;;;;;4825699;29;20329;-69
2021/01/24 03:33:32;;;;;;;3.72;3.28;;;19.80;39.80;;;;;;4820706;29;20038;-70
2021/01/24 03:36:07;;;;;;;3.25;2.95;;;19.80;39.90;;;;;;4813433;29;20030;-70
2021/01/24 03:38:33;;;;;;;4.03;2.97;;;19.70;39.70;;;;;;4842162;29;20073;-70
2021/01/24 03:41:08;;;;;;;4.63;3.10;;;19.70;39.70;;;;;;4799202;29;20495;-70
2021/01/24 03:43:33;;;;;;;3.03;2.63;;;19.70;39.70;;;;;;4824798;29;20030;-70
2021/01/24 03:45:59;;;;;;;4.28;3.20;;;19.70;39.90;;;;;;4829237;29;20038;-70
2021/01/24 03:48:24;;;;;;;4.55;2.63;;;19.70;39.80;;;;;;4837941;29;20395;-69
2021/01/24 03:50:50;;;;;;;3.13;2.60;;;19.70;40.10;;;;;;4816602;29;20042;-69
2021/01/24 03:53:15;;;;;;;4.82;3.00;;;19.70;40.00;;;;;;4822057;29;20083;-69
2021/01/24 03:55:41;;;;;;;4.43;2.90;;;19.70;39.80;;;;;;4812638;29;20197;-69
2021/01/24 03:58:10;;;;;;;2.28;1.83;;;19.70;40.00;;;;;;4828945;29;20042;-69
2021/01/24 04:00:35;;;;;;;3.35;2.78;;;19.70;40.20;;;;;;4818544;29;20045;-69
2021/01/24 04:03:01;;;;;;;3.35;2.78;;;19.60;40.10;;;;;;4814685;29;20083;-69
2021/01/24 04:05:26;;;;;;;5.65;3.30;;;19.60;40.30;;;;;;4824296;29;20041;-68
2021/01/24 04:07:52;;;;;;;3.17;2.30;;;19.60;40.10;;;;;;4821275;29;20042;-68
2021/01/24 04:10:27;;;;;;;2.65;2.35;;;19.60;40.00;;;;;;4836272;29;20030;-68
2021/01/24 04:12:52;;;;;;;4.63;3.50;;;19.60;40.00;;;;;;4817709;29;20033;-69
2021/01/24 04:15:18;;;;;;;8.35;2.88;;;19.60;40.60;;;;;;4805923;29;20037;-68
2021/01/24 04:17:44;;;;;;;5.07;3.28;;;19.60;39.90;;;;;;4833387;29;20549;-80
2021/01/24 04:20:10;;;;;;;5.00;3.97;;;19.60;39.80;;;;;;4838385;29;20058;-79
2021/01/24 04:22:36;;;;;;;2.20;1.98;;;19.60;39.90;;;;;;4833073;29;20034;-79
2021/01/24 04:25:05;;;;;;;5.68;3.97;;;19.60;39.80;;;;;;4808873;29;20046;-79
2021/01/24 04:27:31;;;;;;;4.53;3.88;;;19.60;39.70;;;;;;4826519;29;20038;-78
2021/01/24 04:29:56;;;;;;;5.93;4.00;;;19.60;39.70;;;;;;4825201;29;20090;-77
2021/01/24 04:32:22;;;;;;;6.07;4.30;;;19.60;39.60;;;;;;4834891;29;20072;-76
2021/01/24 04:34:47;;;;;;;5.75;3.85;;;19.60;39.60;;;;;;4812434;29;20019;-80
2021/01/24 04:37:13;;;;;;;4.18;3.88;;;19.60;40.20;;;;;;4818036;29;20475;-78
2021/01/24 04:39:38;;;;;;;5.85;4.30;;;19.60;39.60;;;;;;4838117;29;20033;-69
2021/01/24 04:42:04;;;;;;;5.40;3.92;;;19.60;39.60;;;;;;4838186;29;20077;-69
2021/01/24 04:44:30;;;;;;;5.45;4.28;;;19.60;39.50;;;;;;4840278;29;20049;-69
2021/01/24 04:46:55;;;;;;;3.90;2.78;;;19.60;39.60;;;;;;4838953;29;20077;-69
2021/01/24 04:49:21;;;;;;;5.22;3.72;;;19.60;40.30;;;;;;4837724;29;20452;-69
2021/01/24 04:51:49;;;;;;;2.83;2.35;;;19.60;39.60;;;;;;4838717;29;20037;-69
2021/01/24 04:54:15;;;;;;;8.63;4.32;;;19.60;39.70;;;;;;4800465;29;20031;-69
2021/01/24 04:56:41;;;;;;;5.22;3.75;;;19.60;39.50;;;;;;4814604;29;20034;-70
2021/01/24 04:59:06;;;;;;;6.30;2.85;;;19.60;39.60;;;;;;4819494;29;20062;-69
2021/01/24 05:01:32;;;;;;;5.30;2.80;;;19.50;39.40;;;;;;4823343;29;20034;-69
2021/01/24 05:04:01;;;;;;;2.20;2.08;;;19.50;39.50;;;;;;4813245;29;20044;-70
2021/01/24 05:06:26;;;;;;;0.70;0.30;;;19.50;39.60;;;;;;4788032;29;20427;-70
2021/01/24 05:08:52;;;;;;;4.63;4.22;;;19.50;39.60;;;;;;4834655;29;20038;-69
2021/01/24 05:11:18;;;;;;;1.98;1.73;;;19.50;39.60;;;;;;4791133;29;20043;-69
2021/01/24 05:13:43;;;;;;;0.40;0.40;;;19.50;40.00;;;;;;4804392;29;20037;-70
2021/01/24 05:16:09;;;;;;;5.35;4.22;;;19.50;39.60;;;;;;4809366;29;20046;-69
2021/01/24 05:18:35;;;;;;;0.30;0.30;;;19.50;39.70;;;;;;4812007;29;20046;-70
2021/01/24 05:21:04;;;;;;;1.33;0.57;;;19.50;39.50;;;;;;4815009;29;20605;-70
2021/01/24 05:23:29;;;;;;;4.03;3.70;;;19.50;39.80;;;;;;4792913;29;20038;-70
2021/01/24 05:25:56;;;;;;;0.85;0.40;;;19.50;39.70;;;;;;4836148;29;20071;-70
2021/01/24 05:28:23;;;;;;;0.45;0.45;;;19.50;39.70;;;;;;4797395;29;20045;-69
2021/01/24 05:30:49;;;;;;;3.30;3.00;;;19.50;39.90;;;;;;4804011;29;20025;-70
2021/01/24 05:33:18;;;;;;;1.10;0.28;;;19.50;39.70;;;;;;4795684;29;20094;-70
2021/01/24 05:35:53;;;;;;;0.40;0.30;;;19.50;39.80;;;;;;4825468;29;20090;-70
2021/01/24 05:38:25;;;;;;;3.72;2.33;;;19.50;39.80;;;;;;4818770;29;20091;-70
2021/01/24 05:40:51;;;;;;;0.60;0.52;;;19.40;40.00;;;;;;4826277;29;20094;-70
2021/01/24 05:43:17;;;;;;;0.10;0.10;;;19.40;40.30;;;;;;4833794;29;20033;-69
2021/01/24 05:45:43;;;;;;;2.40;2.15;;;19.40;39.90;;;;;;4807073;29;20046;-69
2021/01/24 05:48:08;;;;;;;1.15;0.20;;;19.40;40.00;;;;;;4819816;29;20033;-69
2021/01/24 05:50:34;;;;;;;0.57;0.30;;;19.40;40.00;;;;;;4802448;29;20048;-69
2021/01/24 05:53:03;;;;;;;5.20;2.50;;;19.40;40.00;;;;;;4819057;29;20081;-70
2021/01/24 05:55:33;;;;;;;1.30;0.70;;;19.40;39.90;;;;;;4800914;29;20041;-70
2021/01/24 05:57:58;;;;;;;0.40;0.30;;;19.40;40.60;;;;;;4817497;29;20034;-70
2021/01/24 06:00:24;;;;;;;5.30;3.83;;;19.40;39.80;;;;;;4810449;29;20032;-70
2021/01/24 06:02:50;;;;;;;0.40;0.30;;;19.40;39.90;;;;;;4791155;29;20035;-71
2021/01/24 06:05:15;;;;;;;0.17;0.17;;;19.40;40.00;;;;;;4814103;29;20075;-71
2021/01/24 06:07:41;;;;;;;5.03;4.10;;;19.40;39.80;;;;;;4831483;29;20105;-71
2021/01/24 06:10:07;;;;;;;0.52;0.30;;;19.40;39.80;;;;;;4838416;29;20026;-71
2021/01/24 06:12:34;;;;;;;0.20;0.20;;;19.40;39.60;;;;;;4809727;29;20038;-70
2021/01/24 06:15:03;;;;;;;7.28;4.65;;;19.40;39.70;;;;;;4809149;29;20037;-70
2021/01/24 06:17:38;;;;;;;0.30;0.30;;;19.40;39.50;;;;;;4801726;29;20436;-71
2021/01/24 06:20:05;;;;;;;0.30;0.30;;;19.40;39.50;;;;;;4795266;29;20513;-71
2021/01/24 06:22:43;;;;;;;4.03;3.30;;;19.40;39.50;;;;;;4797346;29;20038;-70
2021/01/24 06:25:21;;;;;;;0.50;0.50;;;19.50;39.50;;;;;;4818808;29;20487;-70
2021/01/24 06:27:51;;;;;;;0.82;0.40;;;19.40;39.50;;;;;;4793449;29;20057;-71
2021/01/24 06:30:17;;;;;;;7.45;5.15;;;19.40;39.50;;;;;;4812879;29;20033;-71
2021/01/24 06:32:43;;;;;;;4.57;2.00;;;19.40;39.70;;;;;;4828292;29;20030;-71
2021/01/24 06:35:15;;;;;;;0.22;0.22;;;19.40;40.10;;;;;;4811813;29;20419;-71
2021/01/24 06:38:06;;;;;;;0.25;0.25;;;19.40;40.40;;;;;;4825185;29;20046;-72
2021/01/24 06:40:32;;;;;;;2.53;2.20;;;19.50;40.40;;;;;;4795333;29;20125;-73
2021/01/24 06:43:02;;;;;;;0.20;0.20;;;19.50;40.50;;;;;;4825784;29;20034;-72
2021/01/24 06:45:27;;;;;;;0.35;0.30;;;19.60;40.10;;;;;;4797471;29;20172;-71
2021/01/24 06:47:59;;;;;;;1.95;1.85;;;19.70;40.30;;;;;;4828807;29;20105;-71
2021/01/24 06:50:43;;;;;;;0.20;0.20;;;19.80;40.20;;;;;;4812890;29;20507;-70
2021/01/24 06:53:18;;;;;;;4.47;0.60;;;19.90;40.10;;;;;;4796614;29;20083;-70
2021/01/24 06:55:56;;;;;;;2.75;2.55;;;20.00;39.80;;;;;;4824567;29;20043;-71
2021/01/24 07:01:44;;;;;;;4.45;3.20;;;20.20;39.00;;;;;;4822105;29;20042;-71
2021/01/24 07:04:23;;;;;;;1.92;1.83;;;20.30;38.70;;;;;;4812530;29;20034;-70
2021/01/24 07:06:49;;;;;;;0.20;0.20;;;20.30;38.30;;;;;;4828437;29;20082;-69
2021/01/24 07:09:27;;;;;;;0.28;0.28;;;20.40;38.30;;;;;;4817131;29;20022;-69
2021/01/24 07:12:00;;;;;;;5.50;1.65;;;20.40;38.70;;;;;;4831423;29;20042;-69
2021/01/24 07:14:35;;;;;;;0.10;0.10;;;20.50;38.10;;;;;;4800075;29;20038;-70
2021/01/24 07:17:04;;;;;;;0.00;0.00;;;20.50;38.00;;;;;;4824771;29;20053;-70
2021/01/24 07:19:30;;;;;;;0.00;0.00;;;20.50;37.80;;;;;;4804852;29;20054;-70
2021/01/24 07:21:56;;;;;;;0.52;0.10;;;20.50;37.70;;;;;;4829867;29;20033;-70
2021/01/24 07:24:22;;;;;;;0.10;0.10;;;20.50;37.60;;;;;;4812819;29;20422;-70
2021/01/24 07:26:47;;;;;;;0.00;0.00;;;20.60;37.70;;;;;;4814198;29;20039;-70
2021/01/24 07:29:17;;;;;;;0.20;0.20;;;20.60;37.70;;;;;;4830326;29;20050;-70
2021/01/24 07:31:43;;;;;;;0.00;0.00;;;20.60;37.70;;;;;;4824088;29;20029;-70
2021/01/24 07:34:09;;;;;;;0.63;0.35;;;20.60;37.50;;;;;;4810087;29;20419;-70
2021/01/24 07:36:34;;;;;;;0.08;0.08;;;20.60;37.50;;;;;;4810337;29;20045;-70
2021/01/24 07:39:00;;;;;;;0.10;0.10;;;20.60;37.40;;;;;;4796413;29;20047;-71
2021/01/24 07:41:26;;;;;;;0.10;0.10;;;20.60;37.40;;;;;;4794361;29;20039;-71
2021/01/24 07:43:52;;;;;;;0.10;0.10;;;20.70;37.40;;;;;;4810890;29;20050;-70
2021/01/24 07:46:18;;;;;;;0.05;0.05;;;20.70;37.30;;;;;;4799957;29;20031;-70
2021/01/24 07:48:43;;;;;;;0.28;0.10;;;20.70;37.30;;;;;;4797300;29;20462;-70
2021/01/24 07:51:09;;;;;;;0.13;0.13;;;20.70;37.30;;;;;;4808732;29;20031;-71
2021/01/24 07:53:35;;;;;;;0.20;0.20;;;20.70;37.20;;;;;;4808439;29;20026;-70
2021/01/24 07:56:04;;;;;;;0.00;0.00;;;20.70;37.10;;;;;;4776994;29;20460;-70
2021/01/24 07:58:29;;;;;;;0.15;0.15;;;20.70;37.20;;;;;;4807881;29;20030;-70
2021/01/24 08:00:56;;;;;;;8.10;0.32;;;20.70;37.10;;;;;;4826560;29;20023;-69
2021/01/24 08:03:26;;;;;;;0.70;0.47;;;20.70;37.10;;;;;;4780901;29;20034;-70
2021/01/24 08:05:52;;;;;;;0.00;0.00;;;20.80;37.10;;;;;;4815130;29;20030;-70
2021/01/24 08:08:17;;;;;;;0.00;0.00;;;20.80;37.10;;;;;;4794809;29;20420;-70
2021/01/24 08:10:43;;;;;;;1.38;0.10;;;20.80;37.40;;;;;;4831447;29;20444;-69
2021/01/24 08:13:08;;;;;;;0.28;0.13;;;20.70;37.00;;;;;;4797891;29;20034;-69
2021/01/24 08:15:37;;;;;;;0.10;0.10;;;20.80;37.10;;;;;;4825986;29;20037;-69
2021/01/24 08:18:03;;;;;;;1.55;0.77;;;20.80;37.00;;;;;;4807046;29;20073;-69
2021/01/24 08:20:28;;;;;;;0.00;0.00;;;20.80;37.00;;;;;;4808076;29;20034;-69
2021/01/24 08:22:55;;;;;;;0.22;0.22;;;20.80;36.90;;;;;;4811163;29;20424;-70
2021/01/24 08:25:20;;;;;;;0.10;0.00;;;20.80;36.90;;;;;;4810479;29;20022;-69
2021/01/24 08:27:47;;;;;;;0.13;0.10;;;20.80;36.90;;;;;;4829624;29;20053;-69
2021/01/24 08:30:13;;;;;;;0.22;0.08;;;20.80;36.70;;;;;;4808101;29;20053;-70
2021/01/24 08:32:42;;;;;;;0.00;0.00;;;20.80;36.80;;;;;;4816344;29;20059;-70
2021/01/24 08:35:09;;;;;;;0.10;0.10;;;20.90;36.80;;;;;;4802213;29;20514;-70
2021/01/24 08:37:36;;;;;;;0.00;0.00;;;20.90;36.70;;;;;;4811716;29;20067;-70
2021/01/24 08:40:03;;;;;;;1.35;0.63;;;20.80;36.60;;;;;;4836870;29;20458;-70
2021/01/24 08:42:45;;;;;;;0.00;0.00;;;20.90;36.70;;;;;;4816124;29;20103;-69
2021/01/24 08:45:14;;;;;;;0.20;0.20;;;20.90;36.70;;;;;;4830258;29;20073;-70
2021/01/24 08:47:40;;;;;;;0.00;0.00;;;20.80;36.50;;;;;;4796465;29;20033;-69
2021/01/24 08:50:10;;;;;;;0.10;0.10;;;20.80;36.60;;;;;;4819986;29;20026;-70
2021/01/24 08:52:36;;;;;;;0.00;0.00;;;20.90;36.70;;;;;;4819529;29;20023;-69
2021/01/24 08:55:05;;;;;;;0.00;0.00;;;20.90;36.60;;;;;;4791872;29;20030;-70
2021/01/24 08:57:33;;;;;;;0.10;0.10;;;20.90;36.60;;;;;;4833462;29;20038;-70
2021/01/24 09:00:00;;;;;;;0.52;0.30;;;20.90;36.60;;;;;;4797797;29;20109;-70
2021/01/24 09:02:32;;;;;;;0.00;0.00;;;20.80;36.60;;;;;;4799352;29;20053;-70
2021/01/24 09:04:58;;;;;;;2.45;0.75;;;20.80;36.60;;;;;;4811511;29;20050;-70
2021/01/24 09:07:38;;;;;;;0.00;0.00;;;20.80;36.60;;;;;;4834350;29;20049;-70
2021/01/24 09:10:23;;;;;;;0.00;0.00;;;20.90;36.70;;;;;;4811781;29;20059;-70
2021/01/24 09:12:55;;;;;;;0.10;0.00;;;20.90;36.70;;;;;;4835120;29;20062;-69
2021/01/24 09:15:21;;;;;;;0.43;0.43;;;20.90;36.70;;;;;;4815659;29;20034;-70
2021/01/24 09:17:47;;;;;;;0.00;0.00;;;20.90;36.70;;;;;;4835960;29;20065;-69
2021/01/24 09:20:13;;;;;;;0.47;0.00;;;20.90;36.70;;;;;;4794125;29;20510;-68
2021/01/24 09:22:42;;;;;;;1.00;0.38;;;20.90;36.70;;;;;;4809100;29;20061;-69
2021/01/24 09:25:08;;;;;;;0.00;0.00;;;20.90;36.70;;;;;;4829080;29;20034;-68
2021/01/24 09:27:37;;;;;;;0.10;0.10;;;20.90;36.70;;;;;;4790574;29;20121;-68
2021/01/24 09:30:07;;;;;;;0.45;0.45;;;20.90;36.60;;;;;;4804017;29;20065;-68
2021/01/24 09:32:33;;;;;;;0.00;0.00;;;21.00;36.50;;;;;;4810640;29;20049;-68
2021/01/24 09:35:05;;;;;;;0.20;0.20;;;21.00;36.50;;;;;;4807403;29;20047;-68
2021/01/24 09:37:31;;;;;;;0.10;0.08;;;21.00;37.20;;;;;;4805346;29;20033;-69
2021/01/24 09:39:56;;;;;;;0.00;0.00;;;21.00;36.50;;;;;;4827561;29;20577;-69
2021/01/24 09:42:22;;;;;;;0.35;0.20;;;21.10;37.50;;;;;;4819704;29;20033;-68
2021/01/24 09:44:48;;;;;;;1.52;0.77;;;21.10;38.90;;;;;;4806990;29;20042;-68
2021/01/24 09:47:13;;;;;;;0.47;0.05;;;21.10;38.20;;;;;;4809359;29;20077;-69
2021/01/24 09:49:39;;;;;;;0.00;0.00;;;21.10;38.10;;;;;;4826499;29;20046;-69
2021/01/24 09:52:05;;;;;;;0.38;0.38;;;21.20;38.00;;;;;;4824978;29;20038;-68
2021/01/24 09:54:30;;;;;;;0.00;0.00;;;21.20;37.80;;;;;;4823515;29;20106;-68
2021/01/24 09:56:56;;;;;;;0.00;0.00;;;21.20;37.50;;;;;;4830259;29;20042;-69
2021/01/24 09:59:21;;;;;;;0.00;0.00;;;21.20;37.50;;;;;;4827807;29;20030;-68
2021/01/24 10:01:47;;;;;;;0.10;0.00;;;21.20;38.20;;;;;;4822803;29;20415;-68
2021/01/24 10:04:13;;;;;;;12.35;0.38;;;21.20;39.00;;;;;;4821850;29;20030;-68
2021/01/24 10:06:38;;;;;;;0.43;0.40;;;21.20;38.60;;;;;;4817663;29;20480;-68
2021/01/24 10:09:07;;;;;;;0.00;0.00;;;21.20;38.70;;;;;;4819937;29;20046;-68
2021/01/24 10:11:33;;;;;;;0.10;0.10;;;21.30;38.60;;;;;;4825929;29;20159;-77
2021/01/24 10:13:59;;;;;;;0.10;0.10;;;21.30;38.60;;;;;;4807258;29;20437;-78
2021/01/24 10:16:25;;;;;;;1.13;0.05;;;21.30;38.40;;;;;;4788918;29;20419;-77
2021/01/24 10:18:50;;;;;;;0.08;0.08;;;21.30;38.20;;;;;;4801818;29;603619;-77
2021/01/24 10:21:16;;;;;;;1.50;0.80;;;21.30;38.10;;;;;;4823427;29;20125;-77
2021/01/24 10:23:41;;;;;;;0.00;0.00;;;21.30;38.10;;;;;;4823191;29;20030;-77
2021/01/24 10:26:07;;;;;;;0.22;0.20;;;21.30;38.10;;;;;;4823313;29;20121;-76
2021/01/24 10:28:33;;;;;;;0.03;0.03;;;21.30;38.00;;;;;;4823422;29;20030;-77
2021/01/24 10:30:59;;;;;;;0.00;0.00;;;21.30;37.90;;;;;;4790896;29;20027;-77
2021/01/24 10:33:24;;;;;;;0.20;0.05;;;21.30;38.00;;;;;;4803427;29;20034;-76
2021/01/24 10:35:50;;;;;;;0.03;0.03;;;21.30;38.50;;;;;;4807032;29;20109;-77
2021/01/24 10:38:16;;;;;;;0.00;0.00;;;21.30;37.70;;;;;;4791362;29;20110;-76
2021/01/24 10:40:42;;;;;;;1.77;0.32;;;21.30;37.50;;;;;;4823548;29;20072;-78
2021/01/24 10:43:07;;;;;;;0.00;0.00;;;21.30;37.50;;;;;;4807371;29;20578;-78
2021/01/24 10:45:33;;;;;;;0.00;0.00;;;21.30;37.50;;;;;;4806380;29;20128;-76
2021/01/24 10:48:00;;;;;;;0.70;0.57;;;21.30;37.30;;;;;;4790810;29;20516;-78
2021/01/24 10:50:26;;;;;;;0.47;0.45;;;21.20;37.40;;;;;;4819639;29;20038;-78
2021/01/24 10:52:51;;;;;;;0.10;0.10;;;21.20;37.90;;;;;;4791726;29;20046;-77
2021/01/24 10:55:17;;;;;;;0.05;0.00;;;21.20;38.20;;;;;;4783495;29;20108;-77
2021/01/24 10:57:42;;;;;;;0.80;0.38;;;21.20;38.30;;;;;;4823011;29;20091;-77
2021/01/24 11:00:08;;;;;;;0.20;0.20;;;21.20;38.10;;;;;;4822649;29;20034;-77
2021/01/24 11:02:34;;;;;;;0.22;0.10;;;21.20;38.10;;;;;;4804565;29;20061;-78
2021/01/24 11:05:00;;;;;;;0.20;0.10;;;21.20;38.00;;;;;;4817052;29;20504;-79
2021/01/24 11:07:26;;;;;;;0.10;0.10;;;21.20;37.90;;;;;;4820613;29;20042;-78
2021/01/24 11:09:53;;;;;;;0.52;0.38;;;21.20;37.90;;;;;;4791118;29;20129;-78
2021/01/24 11:12:18;;;;;;;0.05;0.05;;;21.20;37.90;;;;;;4813285;29;20110;-78
2021/01/24 11:14:44;;;;;;;0.22;0.22;;;21.20;37.80;;;;;;4823560;29;20462;-78
2021/01/24 11:17:09;;;;;;;2.30;0.60;;;21.20;37.70;;;;;;4823520;29;20031;-78
2021/01/24 11:19:38;;;;;;;0.10;0.10;;;21.20;37.70;;;;;;4822378;29;20046;-78
2021/01/24 11:22:04;;;;;;;0.22;0.13;;;21.20;37.80;;;;;;4804466;29;20590;-78
2021/01/24 11:24:30;;;;;;;0.75;0.75;;;21.20;37.60;;;;;;4803101;29;20066;-78
2021/01/24 11:26:56;;;;;;;0.03;0.03;;;21.20;37.60;;;;;;4808706;29;20407;-78
2021/01/24 11:29:24;;;;;;;0.15;0.00;;;21.20;37.50;;;;;;4825905;29;20089;-78
2021/01/24 11:31:50;;;;;;;0.75;0.20;;;21.10;37.40;;;;;;4825674;29;20034;-78
2021/01/24 11:34:16;;;;;;;0.10;0.10;;;21.10;37.60;;;;;;4809164;29;20026;-78
2021/01/24 11:36:42;;;;;;;0.05;0.05;;;21.20;37.60;;;;;;4825372;29;20035;-78
2021/01/24 11:39:07;;;;;;;1.10;0.52;;;21.20;37.80;;;;;;4826062;29;20054;-78
2021/01/24 11:41:33;;;;;;;0.22;0.10;;;21.20;38.50;;;;;;4825526;29;20041;-78
2021/01/24 11:43:58;;;;;;;0.00;0.00;;;21.20;38.30;;;;;;4809330;29;20054;-78
2021/01/24 11:46:24;;;;;;;0.00;0.00;;;21.20;38.10;;;;;;4824352;29;20511;-78
2021/01/24 11:48:50;;;;;;;0.00;0.00;;;21.20;38.00;;;;;;4824642;29;20037;-78
2021/01/24 11:51:15;;;;;;;0.00;0.00;;;21.20;37.80;;;;;;4824488;29;20037;-79
2021/01/24 11:53:41;;;;;;;0.00;0.00;;;21.20;37.80;;;;;;4826147;29;20069;-78
2021/01/24 11:56:06;;;;;;;0.00;0.00;;;21.20;38.20;;;;;;4811183;29;20042;-79
2021/01/24 11:59:10;;;;;;;0.20;0.10;;;21.20;38.60;;;;;;4812560;29;20039;-79
2021/01/24 12:01:41;;;;;;;0.10;0.10;;;21.20;38.80;;;;;;4818066;29;20113;-79
2021/01/24 12:04:07;;;;;;;0.10;0.10;;;21.20;39.10;;;;;;4829173;29;20097;-79
2021/01/24 12:06:32;;;;;;;0.13;0.13;;;21.20;38.90;;;;;;4828255;29;20066;-79
2021/01/24 12:08:58;;;;;;;0.00;0.00;;;21.20;38.40;;;;;;4811992;29;20042;-78
2021/01/24 12:11:23;;;;;;;0.00;0.00;;;21.20;38.60;;;;;;4806944;29;20047;-79
2021/01/24 12:13:49;;;;;;;0.77;0.43;;;21.20;38.50;;;;;;4807777;29;20058;-77
2021/01/24 12:16:15;;;;;;;0.28;0.28;;;21.20;38.80;;;;;;4812656;29;20060;-78
2021/01/24 12:18:40;;;;;;;0.15;0.15;;;21.20;38.90;;;;;;4824873;29;20050;-79
2021/01/24 12:21:06;;;;;;;0.52;0.32;;;21.20;38.70;;;;;;4809708;29;20042;-79
2021/01/24 12:23:31;;;;;;;0.08;0.00;;;21.20;38.70;;;;;;4825065;29;20514;-78
2021/01/24 12:26:09;;;;;;;0.10;0.10;;;21.20;38.40;;;;;;4835683;29;20039;-78
2021/01/24 12:28:34;;;;;;;0.10;0.10;;;21.20;38.40;;;;;;4805859;29;20079;-77
2021/01/24 12:31:00;;;;;;;0.00;0.00;;;21.20;38.60;;;;;;4816177;29;20043;-78
2021/01/24 12:33:25;;;;;;;0.00;0.00;;;21.20;38.00;;;;;;4827452;29;20034;-78
2021/01/24 12:35:51;;;;;;;0.28;0.20;;;21.20;37.90;;;;;;4821632;29;20043;-78
2021/01/24 12:38:17;;;;;;;0.00;0.00;;;21.20;37.90;;;;;;4810252;29;20109;-78
2021/01/24 12:40:42;;;;;;;0.10;0.10;;;21.20;37.90;;;;;;4833944;29;20045;-78
2021/01/24 12:43:08;;;;;;;0.43;0.40;;;21.10;37.80;;;;;;4814250;29;20037;-78
2021/01/24 12:45:33;;;;;;;0.10;0.10;;;21.10;38.20;;;;;;4833655;29;20062;-70
2021/01/24 12:47:59;;;;;;;0.03;0.03;;;21.10;38.40;;;;;;4823466;29;20495;-70
2021/01/24 12:50:24;;;;;;;0.10;0.03;;;21.10;38.50;;;;;;4831171;29;20038;-70
2021/01/24 12:52:50;;;;;;;0.00;0.00;;;21.10;38.50;;;;;;4798927;29;20599;-70